- বাংলা English

 ** Phone: +880 29135742, 9123838, 9141437 | FAX: +880 2 8118230, 58152019*   

METAR

VGHS 180400Z 00000KT 4000 HZ FEW015 BKN100 29/22 Q1013 NOSIG=